KWRI/WRI METAR and TAF weather

Enter ICAO airport designator
Station Type Date Time Source
KWRI METAR 2020/06/05 12:16 UTC NOAA

KWRI 051216Z AUTO 24008KT 10SM OVC007 21/21 A2994 RMK AO2 CIG 006 RWY06 CIG 005 RWY18 SLP137 $


Station Type Date Time Source
KWRI Decoded METAR 2020/06/05 12:16 UTC NOAA

Mcguire Air Force Base, NJ, United States (KWRI) 40-01N 074-36W
Jun 05, 2020 - 08:16 AM EDT / 2020.06.05 1216 UTC
Wind: from the WSW (240 degrees) at 9 MPH (8 KT):0
Visibility: 10 mile(s):0
Sky conditions: overcast
Temperature: 69 F (21 C)
Dew Point: 69 F (21 C)
Relative Humidity: 100%
Pressure (altimeter): 29.94 in. Hg (1013 hPa)
ob: KWRI 051216Z AUTO 24008KT 10SM OVC007 21/21 A2994 RMK AO2 CIG 006 RWY06 CIG 005 RWY18 SLP137
cycle: 12

Station Type Date Time Source
KWRI TAF 2020/06/05 18:14 UTC NOAA

TAF
AMD KWRI 050004Z 0418/0524 21008KT 9999 SCT250 QNH2985INS
BECMG 0501/0502 21006KT 6000 -SHRA VCTS SCT030CB BKN060 QNH2989INS
TEMPO 0503/0506 24015G35KT 4000 TSRA BR SCT012 OVC030CB
BECMG 0505/0506 21004KT 8000 -SHRA BR OVC030 QNH2988INS
BECMG 0509/0510 21008KT 9999 NSW SCT035 BKN080 QNH2991INS
BECMG 0515/0516 24010G15KT 9000 -SHRA BKN045 QNH2984INS TX30/0500Z TN20/0512Z

Example: see airport list